Time;durP1;ratioP1;P1;durP2;ratioP2;P2;SDS_P1;SDS_P2;PMS_P1;PMS_P2;Temp;Humidity;BMP_temperature;BMP_pressure;BME280_temperature;BME280_humidity;BME280_pressure;Samples;Min_cycle;Max_cycle;Signal;HPM_P1;HPM_P2
2022/12/09 00:08:53;;;;;;;21.42;13.25;;;2.10;99.90;;;;;;20577210;28;20392;-43
2022/12/09 00:18:55;;;;;;;15.90;10.60;;;2.20;99.90;;;;;;20576998;28;20836;-42
2022/12/09 00:28:56;;;;;;;16.83;9.05;;;2.00;99.90;;;;;;20600759;28;20538;-42
2022/12/09 00:38:58;;;;;;;18.40;10.15;;;1.90;99.90;;;;;;20602776;28;20102;-43
2022/12/09 00:48:59;;;;;;;22.73;12.25;;;1.80;99.90;;;;;;20600642;28;20093;-42
2022/12/09 00:59:00;;;;;;;30.40;11.32;;;1.70;99.90;;;;;;20612200;28;20100;-43
2022/12/09 01:09:02;;;;;;;29.17;11.65;;;1.60;99.90;;;;;;20599651;28;20269;-42
2022/12/09 01:19:06;;;;;;;23.90;10.98;;;1.70;99.90;;;;;;20606524;28;20481;-43
2022/12/09 01:29:07;;;;;;;18.10;10.00;;;1.70;99.90;;;;;;20608481;28;20177;-42
2022/12/09 01:39:08;;;;;;;10.52;6.00;;;1.80;99.90;;;;;;20600126;28;20158;-42
2022/12/09 01:49:18;;;;;;;15.70;8.65;;;1.90;99.90;;;;;;20613680;28;20116;-43
2022/12/09 01:59:20;;;;;;;11.73;8.50;;;2.00;99.90;;;;;;20623312;28;20069;-43
2022/12/09 02:09:21;;;;;;;13.27;7.70;;;2.00;99.90;;;;;;20605955;28;20326;-42
2022/12/09 02:19:43;;;;;;;20.23;7.65;;;2.10;99.90;;;;;;20614551;28;20124;-42
2022/12/09 02:29:53;;;;;;;15.88;8.25;;;2.20;99.90;;;;;;20651372;28;20184;-41
2022/12/09 02:40:00;;;;;;;15.32;7.97;;;2.20;99.90;;;;;;20585781;28;20050;-42
2022/12/09 02:50:05;;;;;;;15.93;8.82;;;2.20;99.90;;;;;;20667869;28;21383;-42
2022/12/09 03:00:07;;;;;;;16.33;8.93;;;2.00;99.90;;;;;;20652283;28;20466;-42
2022/12/09 03:10:33;;;;;;;16.35;8.48;;;2.10;99.90;;;;;;20637788;28;20054;-43
2022/12/09 03:20:38;;;;;;;11.70;7.38;;;2.10;99.90;;;;;;20630403;28;20136;-43
2022/12/09 03:30:43;;;;;;;13.13;5.90;;;2.20;99.90;;;;;;20652732;28;20165;-43
2022/12/09 03:40:48;;;;;;;11.30;6.40;;;2.00;99.90;;;;;;20656096;28;20121;-42
2022/12/09 03:51:02;;;;;;;14.18;7.22;;;1.80;99.90;;;;;;20583200;28;20314;-42
2022/12/09 04:01:05;;;;;;;10.10;6.45;;;1.70;99.90;;;;;;20588059;28;20886;-43
2022/12/09 04:11:06;;;;;;;12.68;4.32;;;1.50;99.90;;;;;;20570464;28;20703;-42
2022/12/09 04:21:09;;;;;;;10.00;5.32;;;1.30;99.90;;;;;;20579279;28;20069;-42
2022/12/09 04:31:15;;;;;;;14.77;6.75;;;1.40;99.90;;;;;;20585794;28;20109;-43
2022/12/09 04:41:16;;;;;;;12.03;6.77;;;1.40;99.90;;;;;;20573259;28;20157;-43
2022/12/09 04:51:17;;;;;;;17.05;7.95;;;1.50;99.90;;;;;;20573872;28;20138;-42
2022/12/09 05:01:20;;;;;;;12.27;6.72;;;1.50;99.90;;;;;;20584823;28;20548;-43
2022/12/09 05:11:22;;;;;;;13.80;7.53;;;1.60;99.90;;;;;;20572000;28;20269;-42
2022/12/09 05:21:24;;;;;;;12.95;6.82;;;1.50;99.90;;;;;;20577734;28;21011;-42
2022/12/09 05:31:25;;;;;;;11.77;5.78;;;1.40;99.90;;;;;;20589018;28;20183;-42
2022/12/09 05:41:26;;;;;;;12.27;6.63;;;1.30;99.90;;;;;;20587425;28;20569;-43
2022/12/09 05:51:28;;;;;;;13.88;7.45;;;1.30;99.90;;;;;;20585166;28;20530;-43
2022/12/09 06:01:29;;;;;;;17.35;6.05;;;1.10;99.90;;;;;;20587217;28;20121;-43
2022/12/09 06:11:31;;;;;;;11.88;6.80;;;1.00;99.90;;;;;;20576883;28;20208;-43
2022/12/09 06:21:32;;;;;;;14.00;5.68;;;0.90;99.90;;;;;;20580839;28;20169;-42
2022/12/09 06:31:33;;;;;;;10.68;7.25;;;0.80;99.90;;;;;;20605573;28;20156;-43
2022/12/09 06:41:34;;;;;;;11.50;6.30;;;0.80;99.90;;;;;;20595326;28;20042;-42
2022/12/09 06:51:35;;;;;;;13.88;7.20;;;0.70;99.90;;;;;;20590655;28;20065;-42
2022/12/09 07:01:36;;;;;;;13.45;6.07;;;0.60;99.90;;;;;;20584921;28;20112;-43
2022/12/09 07:11:39;;;;;;;13.57;7.28;;;0.60;99.90;;;;;;20573612;28;20058;-42
2022/12/09 07:21:40;;;;;;;14.07;6.32;;;0.50;99.90;;;;;;20604696;28;20496;-43
2022/12/09 07:31:41;;;;;;;16.00;6.88;;;0.50;99.90;;;;;;20564294;28;20541;-42
2022/12/09 07:41:42;;;;;;;15.45;7.45;;;0.40;99.90;;;;;;20491835;28;21527;-42
2022/12/09 07:51:43;;;;;;;12.10;7.85;;;0.50;99.90;;;;;;20635419;28;20410;-42
2022/12/09 08:01:45;;;;;;;20.75;9.57;;;0.50;99.90;;;;;;20661480;28;20046;-44
2022/12/09 08:11:45;;;;;;;18.60;10.57;;;0.50;99.90;;;;;;20687299;28;20649;-43
2022/12/09 08:21:47;;;;;;;27.67;14.57;;;0.60;99.90;;;;;;20697340;28;20354;-43
2022/12/09 08:31:48;;;;;;;36.38;16.50;;;0.70;99.90;;;;;;20704565;28;20133;-43
2022/12/09 08:41:49;;;;;;;29.20;14.65;;;0.70;99.90;;;;;;20690413;28;20176;-43
2022/12/09 08:51:51;;;;;;;28.48;15.95;;;0.80;99.90;;;;;;20653903;28;20054;-43
2022/12/09 09:01:52;;;;;;;32.00;17.55;;;0.90;99.90;;;;;;20660857;28;20428;-43
2022/12/09 09:11:53;;;;;;;29.08;17.90;;;0.90;99.90;;;;;;20655272;28;20135;-43
2022/12/09 09:21:55;;;;;;;32.42;16.75;;;0.90;99.90;;;;;;20587374;28;20328;-43
2022/12/09 09:31:56;;;;;;;30.30;14.50;;;0.90;99.90;;;;;;20595634;28;20773;-43
2022/12/09 09:42:03;;;;;;;25.52;15.05;;;1.20;99.90;;;;;;20515481;28;20038;-42
2022/12/09 09:52:15;;;;;;;23.85;13.98;;;1.50;99.90;;;;;;20572866;28;20115;-42
2022/12/09 10:02:38;;;;;;;35.08;15.75;;;1.60;99.90;;;;;;20560420;28;20529;-43
2022/12/09 10:13:08;;;;;;;23.58;13.65;;;1.90;99.90;;;;;;20583766;28;20545;-43
2022/12/09 10:23:14;;;;;;;21.58;13.13;;;2.30;99.90;;;;;;20642221;28;20879;-42
2022/12/09 10:33:17;;;;;;;24.98;12.43;;;2.60;99.90;;;;;;20561428;28;20054;-43
2022/12/09 10:43:34;;;;;;;25.42;12.15;;;2.70;99.90;;;;;;20550576;28;20029;-44
2022/12/09 10:53:36;;;;;;;23.60;13.53;;;2.50;99.90;;;;;;20587580;28;20137;-43
2022/12/09 11:03:52;;;;;;;31.77;13.27;;;2.50;99.90;;;;;;20596858;28;20038;-42
2022/12/09 11:13:53;;;;;;;26.03;12.20;;;2.40;99.90;;;;;;20610235;28;21735;-42
2022/12/09 11:23:55;;;;;;;24.48;15.07;;;2.40;99.90;;;;;;20674590;28;21116;-42
2022/12/09 11:33:59;;;;;;;32.72;14.70;;;2.20;99.90;;;;;;20684747;28;20132;-43
2022/12/09 11:44:01;;;;;;;20.73;14.65;;;2.10;99.90;;;;;;20685618;28;20604;-43
2022/12/09 11:54:22;;;;;;;21.77;13.02;;;2.30;99.90;;;;;;20654338;28;20190;-42
2022/12/09 12:04:53;;;;;;;21.83;14.20;;;2.30;99.90;;;;;;20684542;28;20037;-42
2022/12/09 12:15:00;;;;;;;33.63;15.70;;;2.30;99.90;;;;;;20655637;28;21741;-43
2022/12/09 12:25:19;;;;;;;20.65;12.88;;;2.30;99.90;;;;;;20665890;28;20478;-43
2022/12/09 12:35:29;;;;;;;25.17;12.88;;;2.40;99.90;;;;;;20636019;28;20772;-42
2022/12/09 12:56:22;;;;;;;19.90;10.73;;;2.00;99.90;;;;;;20674152;28;20190;-42
2022/12/09 13:06:55;;;;;;;17.10;10.60;;;2.10;99.90;;;;;;20689546;28;20100;-43
2022/12/09 13:16:58;;;;;;;20.67;10.57;;;2.20;99.90;;;;;;20678106;28;21459;-43
2022/12/09 13:27:29;;;;;;;21.90;9.38;;;2.00;99.90;;;;;;20681674;28;20053;-42
2022/12/09 13:37:36;;;;;;;23.65;12.27;;;2.10;99.90;;;;;;20683018;28;20168;-42
2022/12/09 13:47:36;;;;;;;;;;;2.10;99.90;;;;;;20654827;28;20359;-44
2022/12/09 13:57:49;;;;;;;13.38;9.95;;;2.00;99.90;;;;;;20660894;28;19917;-42
2022/12/09 14:08:02;;;;;;;16.60;9.73;;;1.90;99.90;;;;;;20671063;28;20845;-42
2022/12/09 14:18:28;;;;;;;24.60;10.40;;;1.90;99.90;;;;;;20671353;28;20682;-43
2022/12/09 14:28:50;;;;;;;21.42;10.18;;;2.00;99.90;;;;;;20697263;28;20069;-42
2022/12/09 14:39:04;;;;;;;23.00;10.35;;;2.10;99.90;;;;;;20673695;28;20913;-43
2022/12/09 14:49:21;;;;;;;16.65;9.02;;;2.00;99.90;;;;;;20682540;28;21838;-43
2022/12/09 14:59:24;;;;;;;17.98;10.43;;;1.90;99.90;;;;;;20657891;28;20112;-43
2022/12/09 15:09:25;;;;;;;27.55;8.60;;;1.80;99.90;;;;;;20671115;28;20049;-43
2022/12/09 15:19:28;;;;;;;13.68;9.02;;;1.60;99.90;;;;;;20678806;28;20046;-42
2022/12/09 15:29:32;;;;;;;17.15;9.48;;;1.60;99.90;;;;;;20691707;28;20117;-43
2022/12/09 15:39:39;;;;;;;20.55;9.85;;;1.50;99.90;;;;;;20680487;28;20566;-43
2022/12/09 15:49:56;;;;;;;20.98;11.50;;;1.40;99.90;;;;;;20694947;28;20143;-43
2022/12/09 15:59:57;;;;;;;20.20;12.45;;;1.20;99.90;;;;;;20678269;28;21687;-43
2022/12/09 16:10:14;;;;;;;17.50;11.88;;;1.10;99.90;;;;;;20701915;28;20564;-42
2022/12/09 16:20:19;;;;;;;65.25;14.48;;;1.10;99.90;;;;;;20700189;28;20421;-43
2022/12/09 16:30:23;;;;;;;43.97;14.02;;;1.10;99.90;;;;;;20689223;28;20042;-42
2022/12/09 16:40:24;;;;;;;27.35;13.75;;;1.10;99.90;;;;;;20652089;28;20289;-42
2022/12/09 16:50:31;;;;;;;51.60;14.55;;;0.80;99.90;;;;;;20637481;28;20054;-42
2022/12/09 17:00:32;;;;;;;23.73;12.40;;;0.60;99.90;;;;;;20637891;28;20219;-42
2022/12/09 17:10:34;;;;;;;24.80;14.05;;;0.60;99.90;;;;;;20625882;28;20046;-42
2022/12/09 17:20:36;;;;;;;15.55;11.32;;;0.60;99.90;;;;;;20641084;28;20042;-42
2022/12/09 17:30:38;;;;;;;21.45;10.85;;;0.60;99.90;;;;;;20663300;28;20133;-43
2022/12/09 17:40:39;;;;;;;26.77;15.40;;;0.70;99.90;;;;;;20663640;28;20465;-42
2022/12/09 17:50:40;;;;;;;21.58;11.80;;;0.60;99.90;;;;;;20629282;28;21972;-42
2022/12/09 18:00:41;;;;;;;24.33;13.15;;;0.50;99.90;;;;;;20582220;28;20042;-41
2022/12/09 18:10:43;;;;;;;99.03;17.67;;;0.40;99.90;;;;;;20561264;28;20042;-43
2022/12/09 18:20:44;;;;;;;70.80;17.70;;;0.40;99.90;;;;;;20551460;28;20092;-42
2022/12/09 18:30:45;;;;;;;31.67;15.23;;;0.30;99.90;;;;;;20551878;28;20042;-43
2022/12/09 18:41:01;;;;;;;28.67;16.30;;;0.20;99.90;;;;;;20640708;28;21752;-42
2022/12/09 18:51:02;;;;;;;26.37;14.27;;;0.20;99.90;;;;;;20634813;28;20905;-40
2022/12/09 19:01:28;;;;;;;25.50;16.15;;;0.20;99.90;;;;;;20641757;28;20060;-41
2022/12/09 19:11:32;;;;;;;24.08;14.65;;;0.10;99.90;;;;;;20655886;28;20048;-44
2022/12/09 19:21:33;;;;;;;26.20;13.68;;;0.10;99.90;;;;;;20651355;28;20606;-41
2022/12/09 19:31:40;;;;;;;26.55;15.52;;;0.20;99.90;;;;;;20647473;28;20053;-40
2022/12/09 19:41:42;;;;;;;33.15;13.50;;;0.20;99.90;;;;;;20650180;28;20929;-43
2022/12/09 19:51:43;;;;;;;26.30;13.75;;;0.30;99.90;;;;;;20587958;28;20610;-41
2022/12/09 20:01:44;;;;;;;24.15;12.63;;;0.30;99.90;;;;;;20631579;28;20580;-41
2022/12/09 20:11:46;;;;;;;23.73;14.13;;;0.30;99.90;;;;;;20627334;28;20160;-41
2022/12/09 20:21:47;;;;;;;27.25;17.23;;;0.30;99.90;;;;;;20682534;28;20665;-42
2022/12/09 20:31:48;;;;;;;28.67;16.30;;;0.20;99.90;;;;;;20671646;28;20251;-42
2022/12/09 20:41:49;;;;;;;26.67;16.88;;;0.20;99.90;;;;;;20590817;28;20125;-43
2022/12/09 20:51:51;;;;;;;32.35;17.13;;;0.30;99.90;;;;;;20607572;28;20144;-42
2022/12/09 21:01:53;;;;;;;36.72;19.05;;;0.40;99.90;;;;;;20650078;28;20188;-40
2022/12/09 21:11:54;;;;;;;34.40;17.27;;;0.60;99.90;;;;;;20638943;28;20129;-41
2022/12/09 21:21:55;;;;;;;30.20;15.98;;;0.70;99.90;;;;;;20666788;28;20049;-40
2022/12/09 21:31:56;;;;;;;24.27;15.82;;;0.70;99.90;;;;;;20651918;28;20473;-41
2022/12/09 21:41:57;;;;;;;23.38;15.60;;;0.70;99.90;;;;;;20634488;28;20137;-41
2022/12/09 21:51:59;;;;;;;29.95;14.85;;;0.70;99.90;;;;;;20647081;28;20130;-42
2022/12/09 22:02:00;;;;;;;31.40;12.93;;;0.80;99.90;;;;;;20643252;28;20272;-43
2022/12/09 22:12:01;;;;;;;19.55;12.38;;;0.90;99.90;;;;;;20605478;28;20129;-42
2022/12/09 22:22:02;;;;;;;27.30;12.90;;;1.00;99.90;;;;;;20642192;28;20504;-42
2022/12/09 22:32:03;;;;;;;27.40;15.85;;;0.90;99.90;;;;;;20642260;28;20414;-42
2022/12/09 22:42:04;;;;;;;32.90;15.82;;;0.90;99.90;;;;;;20623557;28;20053;-41
2022/12/09 22:52:05;;;;;;;32.78;15.45;;;0.90;99.90;;;;;;20683315;28;20062;-42
2022/12/09 23:02:06;;;;;;;25.50;13.90;;;0.80;99.90;;;;;;20676563;28;20146;-42
2022/12/09 23:12:07;;;;;;;36.00;15.70;;;0.80;99.90;;;;;;20671561;28;20363;-42
2022/12/09 23:22:08;;;;;;;26.92;17.40;;;0.60;99.90;;;;;;20679269;28;20217;-42
2022/12/09 23:32:09;;;;;;;25.38;15.07;;;0.60;99.90;;;;;;20664429;28;20072;-41
2022/12/09 23:42:10;;;;;;;42.00;16.83;;;0.50;99.90;;;;;;20661866;28;20085;-41
2022/12/09 23:52:11;;;;;;;35.42;16.20;;;0.40;99.90;;;;;;20706715;28;20137;-42
